createdAt,value
2017-09-08T00:02:02.227Z,4.20
2017-09-08T00:05:07.232Z,4.67
2017-09-08T00:08:11.977Z,4.83
2017-09-08T00:11:17.319Z,5.17
2017-09-08T00:14:23.595Z,5.40
2017-09-08T00:17:28.410Z,5.20
2017-09-08T00:20:33.340Z,5.03
2017-09-08T00:23:38.093Z,5.03
2017-09-08T00:26:43.379Z,4.10
2017-09-08T00:29:48.920Z,4.33
2017-09-08T00:32:54.276Z,4.50
2017-09-08T00:35:59.399Z,4.73
2017-09-08T00:39:04.276Z,4.33
2017-09-08T00:42:09.126Z,5.07
2017-09-08T00:45:14.291Z,4.77
2017-09-08T00:48:19.851Z,4.60
2017-09-08T00:51:25.411Z,4.90
2017-09-08T00:54:30.418Z,4.67
2017-09-08T00:57:36.871Z,4.70
2017-09-08T01:00:42.636Z,4.63
2017-09-08T01:03:47.803Z,4.53
2017-09-08T01:06:52.492Z,4.70
2017-09-08T01:09:58.016Z,4.33
2017-09-08T01:13:02.932Z,4.50
2017-09-08T01:16:08.989Z,5.10
2017-09-08T01:19:14.224Z,4.00
2017-09-08T01:22:19.267Z,4.50
2017-09-08T01:25:24.908Z,5.00
2017-09-08T01:28:29.683Z,5.23
2017-09-08T01:31:35.008Z,5.10
2017-09-08T01:34:40.073Z,4.07
2017-09-08T01:37:45.441Z,4.80
2017-09-08T01:40:50.848Z,4.80
2017-09-08T01:43:55.985Z,4.60
2017-09-08T01:47:01.054Z,4.20
2017-09-08T01:50:06.647Z,4.87
2017-09-08T01:53:11.631Z,4.80
2017-09-08T01:56:17.093Z,5.47
2017-09-08T01:59:22.398Z,4.93
2017-09-08T02:02:28.154Z,4.80
2017-09-08T02:05:33.837Z,4.57
2017-09-08T02:08:38.963Z,4.70
2017-09-08T02:11:44.072Z,4.50
2017-09-08T02:14:49.460Z,5.33
2017-09-08T02:17:55.956Z,4.87
2017-09-08T02:21:01.456Z,4.43
2017-09-08T02:24:07.459Z,5.10
2017-09-08T02:27:12.401Z,4.57
2017-09-08T02:30:17.728Z,4.00
2017-09-08T02:33:23.396Z,4.30
2017-09-08T02:36:28.790Z,4.20
2017-09-08T02:39:34.293Z,5.10
2017-09-08T02:42:39.764Z,5.40
2017-09-08T02:45:45.236Z,5.17
2017-09-08T02:48:50.960Z,4.90
2017-09-08T02:51:55.983Z,4.80
2017-09-08T02:55:00.956Z,4.63
2017-09-08T02:58:07.418Z,5.73
2017-09-08T03:01:12.924Z,5.47
2017-09-08T03:04:18.336Z,4.73
2017-09-08T03:07:24.224Z,5.00
2017-09-08T03:10:29.548Z,4.97
2017-09-08T03:13:34.588Z,4.23
2017-09-08T03:16:39.895Z,5.60
2017-09-08T03:19:45.363Z,4.33
2017-09-08T03:22:50.115Z,5.30
2017-09-08T03:25:56.939Z,5.10
2017-09-08T03:29:01.856Z,4.60
2017-09-08T03:32:06.927Z,4.90
2017-09-08T03:35:11.996Z,4.67
2017-09-08T03:38:16.776Z,4.83
2017-09-08T03:41:21.768Z,5.00
2017-09-08T03:44:26.643Z,4.70
2017-09-08T03:47:31.445Z,4.80
2017-09-08T03:50:36.429Z,4.73
2017-09-08T03:53:41.339Z,4.77
2017-09-08T03:56:46.838Z,4.43
2017-09-08T03:59:52.397Z,5.30
2017-09-08T04:02:57.296Z,6.17
2017-09-08T04:06:02.599Z,4.30
2017-09-08T04:09:07.887Z,4.90
2017-09-08T04:12:13.072Z,4.07
2017-09-08T04:15:17.755Z,5.00
2017-09-08T04:18:23.640Z,4.73
2017-09-08T04:21:28.400Z,4.77
2017-09-08T04:24:34.921Z,4.70
2017-09-08T04:27:40.056Z,5.03
2017-09-08T04:30:45.567Z,4.77
2017-09-08T04:33:51.278Z,6.00
2017-09-08T04:36:56.712Z,5.10
2017-09-08T04:40:03.387Z,4.53
2017-09-08T04:43:08.888Z,5.50
2017-09-08T04:46:13.907Z,4.17
2017-09-08T04:49:20.685Z,4.30
2017-09-08T04:52:26.439Z,4.13
2017-09-08T04:55:31.534Z,4.60
2017-09-08T04:58:36.556Z,6.00
2017-09-08T05:01:42.156Z,4.03
2017-09-08T05:04:48.325Z,5.03
2017-09-08T05:07:53.108Z,4.57
2017-09-08T05:10:58.543Z,4.10
2017-09-08T05:14:03.953Z,4.33
2017-09-08T05:17:12.814Z,3.50
2017-09-08T05:20:19.599Z,4.40
2017-09-08T05:23:24.711Z,4.03
2017-09-08T05:26:30.271Z,4.53
2017-09-08T05:29:35.651Z,3.87
2017-09-08T05:32:41.261Z,4.10
2017-09-08T05:35:46.588Z,3.43
2017-09-08T05:38:51.365Z,4.63
2017-09-08T05:41:59.372Z,3.73
2017-09-08T05:45:04.860Z,5.37
2017-09-08T05:48:09.855Z,5.37
2017-09-08T05:51:15.525Z,4.87
2017-09-08T05:54:20.933Z,4.60
2017-09-08T05:57:26.162Z,4.90
2017-09-08T06:00:31.704Z,4.60
2017-09-08T06:03:37.399Z,4.13
2017-09-08T06:06:42.362Z,4.00
2017-09-08T06:09:47.726Z,3.50
2017-09-08T06:12:53.218Z,3.70
2017-09-08T06:15:58.948Z,4.37
2017-09-08T06:19:04.498Z,3.57
2017-09-08T06:22:09.843Z,3.70
2017-09-08T06:25:14.875Z,5.00
2017-09-08T06:28:21.245Z,3.87
2017-09-08T06:31:26.828Z,4.43
2017-09-08T06:34:32.991Z,3.40
2017-09-08T06:37:37.821Z,4.27
2017-09-08T06:40:42.992Z,3.70
2017-09-08T06:43:49.351Z,3.97
2017-09-08T06:46:54.799Z,4.03
2017-09-08T06:50:01.359Z,3.30
2017-09-08T06:53:06.673Z,3.63
2017-09-08T06:56:12.660Z,4.77
2017-09-08T06:59:17.610Z,4.10
2017-09-08T07:02:23.107Z,3.77
2017-09-08T07:05:28.017Z,3.53
2017-09-08T07:08:33.822Z,3.67
2017-09-08T07:11:39.244Z,3.73
2017-09-08T07:14:44.253Z,3.67
2017-09-08T07:17:49.825Z,4.00
2017-09-08T07:20:55.093Z,3.90
2017-09-08T07:24:01.852Z,4.00
2017-09-08T07:27:07.555Z,3.93
2017-09-08T07:30:13.165Z,4.30
2017-09-08T07:33:18.323Z,4.13
2017-09-08T07:36:24.055Z,3.50
2017-09-08T07:39:28.916Z,4.40
2017-09-08T07:42:33.961Z,3.60
2017-09-08T07:45:39.160Z,3.93
2017-09-08T07:48:45.155Z,4.17
2017-09-08T07:51:51.311Z,4.27
2017-09-08T07:54:56.605Z,3.97
2017-09-08T07:58:02.456Z,3.53
2017-09-08T08:01:07.988Z,4.30
2017-09-08T08:04:13.945Z,4.40
2017-09-08T08:07:18.897Z,4.50
2017-09-08T08:10:24.655Z,4.80
2017-09-08T08:13:29.500Z,3.93
2017-09-08T08:16:34.980Z,3.73
2017-09-08T08:19:40.992Z,3.97
2017-09-08T08:22:45.887Z,4.00
2017-09-08T08:25:51.191Z,3.67
2017-09-08T08:28:56.869Z,3.73
2017-09-08T08:32:03.135Z,4.00
2017-09-08T08:35:08.017Z,4.00
2017-09-08T08:38:13.692Z,3.67
2017-09-08T08:41:19.133Z,4.07
2017-09-08T08:44:24.173Z,3.67
2017-09-08T08:47:29.956Z,3.90
2017-09-08T08:50:34.944Z,3.93
2017-09-08T08:53:40.374Z,4.30
2017-09-08T08:56:45.808Z,3.83
2017-09-08T08:59:51.507Z,3.97
2017-09-08T09:02:56.549Z,3.93
2017-09-08T09:06:02.844Z,4.37
2017-09-08T09:09:08.424Z,3.80
2017-09-08T09:12:14.689Z,4.00
2017-09-08T09:15:20.089Z,4.67
2017-09-08T09:18:25.672Z,3.80
2017-09-08T09:21:30.966Z,4.30
2017-09-08T09:24:37.211Z,4.30
2017-09-08T09:27:42.139Z,4.77
2017-09-08T09:30:47.008Z,4.53
2017-09-08T09:33:52.659Z,5.17
2017-09-08T09:36:57.596Z,3.87
2017-09-08T09:40:02.980Z,4.70
2017-09-08T09:43:08.259Z,4.40
2017-09-08T09:46:13.679Z,3.97
2017-09-08T09:49:19.407Z,5.20
2017-09-08T09:52:24.708Z,4.53
2017-09-08T09:55:30.356Z,4.77
2017-09-08T09:58:36.040Z,4.73
2017-09-08T10:01:40.817Z,4.00
2017-09-08T10:04:45.836Z,3.83
2017-09-08T10:07:51.911Z,4.97
2017-09-08T10:10:56.688Z,5.30
2017-09-08T10:14:02.186Z,4.07
2017-09-08T10:17:07.175Z,4.13
2017-09-08T10:20:12.668Z,5.07
2017-09-08T10:23:17.469Z,4.03
2017-09-08T10:26:26.223Z,5.10
2017-09-08T10:29:31.612Z,4.50
2017-09-08T10:32:36.595Z,3.97
2017-09-08T10:35:42.393Z,4.20
2017-09-08T10:38:47.548Z,4.10
2017-09-08T10:41:52.720Z,4.23
2017-09-08T10:44:58.107Z,4.50
2017-09-08T10:48:03.096Z,3.50
2017-09-08T10:51:08.839Z,4.37
2017-09-08T10:54:13.892Z,3.73
2017-09-08T10:57:18.753Z,4.60
2017-09-08T11:00:24.155Z,4.77
2017-09-08T11:03:29.000Z,4.00
2017-09-08T11:06:33.765Z,4.33
2017-09-08T11:09:39.009Z,4.17
2017-09-08T11:12:44.672Z,5.10
2017-09-08T11:15:50.378Z,4.10
2017-09-08T11:18:55.976Z,4.33
2017-09-08T11:22:05.827Z,4.03
2017-09-08T11:25:11.020Z,4.57
2017-09-08T11:28:16.049Z,4.23
2017-09-08T11:31:21.200Z,4.87
2017-09-08T11:38:12.100Z,3.73
2017-09-08T11:41:17.708Z,4.13
2017-09-08T11:44:22.728Z,4.37
2017-09-08T11:47:27.820Z,4.30
2017-09-08T11:50:32.896Z,4.07
2017-09-08T11:53:38.467Z,4.70
2017-09-08T11:56:43.687Z,4.73
2017-09-08T11:59:48.452Z,4.60
2017-09-08T12:02:53.676Z,4.27
2017-09-08T12:05:58.616Z,4.23
2017-09-08T12:09:08.415Z,3.40
2017-09-08T12:12:14.008Z,3.80
2017-09-08T12:15:18.748Z,3.60
2017-09-08T12:18:24.234Z,4.50
2017-09-08T12:21:29.205Z,2.50
2017-09-08T12:24:36.471Z,3.10
2017-09-08T12:27:41.932Z,2.73
2017-09-08T12:30:47.440Z,2.43
2017-09-08T12:33:52.600Z,2.63
2017-09-08T12:36:57.748Z,3.10
2017-09-08T12:40:02.568Z,3.40
2017-09-08T12:43:07.424Z,3.70
2017-09-08T12:46:12.812Z,2.90
2017-09-08T12:49:18.363Z,3.60
2017-09-08T12:52:23.307Z,2.80
2017-09-08T12:55:28.959Z,3.50
2017-09-08T12:58:35.300Z,3.47
2017-09-08T13:01:40.284Z,3.33
2017-09-08T13:04:46.129Z,3.57
2017-09-08T13:07:51.828Z,3.50
2017-09-08T13:10:57.482Z,3.50
2017-09-08T13:14:02.832Z,3.17
2017-09-08T13:17:07.704Z,3.37
2017-09-08T13:20:12.904Z,3.70
2017-09-08T13:23:18.029Z,3.43
2017-09-08T13:26:23.269Z,3.17
2017-09-08T13:29:28.547Z,2.90
2017-09-08T13:32:33.989Z,3.30
2017-09-08T13:35:38.951Z,2.90
2017-09-08T13:38:43.935Z,3.37
2017-09-08T13:41:49.568Z,3.43
2017-09-08T13:44:55.112Z,4.23
2017-09-08T13:48:00.013Z,3.07
2017-09-08T13:51:04.723Z,3.20
2017-09-08T13:54:10.589Z,3.13
2017-09-08T13:57:15.744Z,3.00
2017-09-08T14:00:21.465Z,3.10
2017-09-08T14:03:27.544Z,3.20
2017-09-08T14:06:32.865Z,2.97
2017-09-08T14:09:38.096Z,2.50
2017-09-08T14:12:43.856Z,2.30
2017-09-08T14:15:49.480Z,2.70
2017-09-08T14:18:54.683Z,2.97
2017-09-08T14:21:59.724Z,2.37
2017-09-08T14:25:05.385Z,3.03
2017-09-08T14:28:10.676Z,2.60
2017-09-08T14:31:15.458Z,3.63
2017-09-08T14:34:20.485Z,3.13
2017-09-08T14:37:25.423Z,2.83
2017-09-08T14:40:31.160Z,2.83
2017-09-08T14:43:37.734Z,3.20
2017-09-08T14:46:43.260Z,3.33
2017-09-08T14:49:48.285Z,2.97
2017-09-08T14:52:53.775Z,3.73
2017-09-08T14:55:59.528Z,3.10
2017-09-08T14:59:04.268Z,3.70
2017-09-08T15:02:09.211Z,3.33
2017-09-08T15:05:14.848Z,3.50
2017-09-08T15:08:19.684Z,4.10
2017-09-08T15:11:25.339Z,3.70
2017-09-08T15:14:30.275Z,3.57
2017-09-08T15:17:35.377Z,3.37
2017-09-08T15:20:40.172Z,3.70
2017-09-08T15:23:45.595Z,3.40
2017-09-08T15:26:50.919Z,3.50
2017-09-08T15:29:55.888Z,3.37
2017-09-08T15:33:01.344Z,3.20
2017-09-08T15:36:07.059Z,3.03
2017-09-08T15:39:12.357Z,3.40
2017-09-08T15:42:17.143Z,3.17
2017-09-08T15:45:22.075Z,3.47
2017-09-08T15:48:27.760Z,3.23
2017-09-08T15:51:33.299Z,3.23
2017-09-08T15:54:38.965Z,2.87
2017-09-08T15:57:44.469Z,3.53
2017-09-08T16:00:50.167Z,3.00
2017-09-08T16:03:55.716Z,2.90
2017-09-08T16:07:00.692Z,3.37
2017-09-08T16:10:06.131Z,3.30
2017-09-08T16:13:11.037Z,3.00
2017-09-08T16:16:15.836Z,2.90
2017-09-08T16:19:21.881Z,3.30
2017-09-08T16:22:27.516Z,3.10
2017-09-08T16:25:32.423Z,2.97
2017-09-08T16:28:37.735Z,3.40
2017-09-08T16:31:43.183Z,3.20
2017-09-08T16:34:48.893Z,3.27
2017-09-08T16:37:54.652Z,3.10
2017-09-08T16:40:59.729Z,2.37
2017-09-08T16:44:04.903Z,3.00
2017-09-08T16:47:09.848Z,3.30
2017-09-08T16:50:15.440Z,3.50
2017-09-08T16:53:20.932Z,4.03
2017-09-08T16:56:26.496Z,3.20
2017-09-08T16:59:32.316Z,3.20
2017-09-08T17:02:37.452Z,3.10
2017-09-08T17:05:42.568Z,2.90
2017-09-08T17:08:47.579Z,2.63
2017-09-08T17:11:52.856Z,3.20
2017-09-08T17:14:58.999Z,2.90
2017-09-08T17:18:04.551Z,2.80
2017-09-08T17:21:10.089Z,4.50
2017-09-08T17:24:16.657Z,3.57
2017-09-08T17:27:21.645Z,3.23
2017-09-08T17:30:26.464Z,3.83
2017-09-08T17:33:31.620Z,3.10
2017-09-08T17:36:37.865Z,3.60
2017-09-08T17:39:43.011Z,3.40
2017-09-08T17:42:47.981Z,3.87
2017-09-08T17:45:53.340Z,3.50
2017-09-08T17:48:58.582Z,3.70
2017-09-08T17:52:04.367Z,3.73
2017-09-08T17:55:10.503Z,3.30
2017-09-08T17:58:15.868Z,3.63
2017-09-08T18:01:21.105Z,3.83
2017-09-08T18:04:27.121Z,3.43
2017-09-08T18:07:32.616Z,3.57
2017-09-08T18:10:38.075Z,3.50
2017-09-08T18:13:43.212Z,3.43
2017-09-08T18:16:49.040Z,4.00
2017-09-08T18:19:54.768Z,3.40
2017-09-08T18:22:59.756Z,3.33
2017-09-08T18:26:04.672Z,3.40
2017-09-08T18:29:10.273Z,4.07
2017-09-08T18:32:15.872Z,3.43
2017-09-08T18:35:21.671Z,3.70
2017-09-08T18:38:27.072Z,4.07
2017-09-08T18:41:32.590Z,3.30
2017-09-08T18:44:38.590Z,3.80
2017-09-08T18:47:44.162Z,3.03
2017-09-08T18:50:49.648Z,3.30
2017-09-08T18:53:54.692Z,3.73
2017-09-08T18:57:00.097Z,3.57
2017-09-08T19:00:05.248Z,3.33
2017-09-08T19:03:10.248Z,3.80
2017-09-08T19:06:15.494Z,4.33
2017-09-08T19:09:20.976Z,5.00
2017-09-08T19:12:27.028Z,4.70
2017-09-08T19:15:32.088Z,3.47
2017-09-08T19:18:37.396Z,2.70
2017-09-08T19:21:43.348Z,2.63
2017-09-08T19:24:49.051Z,3.10
2017-09-08T19:27:54.100Z,3.90
2017-09-08T19:30:59.348Z,3.63
2017-09-08T19:34:04.682Z,3.27
2017-09-08T19:37:10.112Z,3.60
2017-09-08T19:40:15.370Z,2.87
2017-09-08T19:43:20.713Z,3.00
2017-09-08T19:46:25.520Z,3.40
2017-09-08T19:49:31.784Z,2.90
2017-09-08T19:52:36.580Z,3.10
2017-09-08T19:55:41.504Z,3.00
2017-09-08T19:58:46.337Z,2.33
2017-09-08T20:01:52.171Z,2.47
2017-09-08T20:04:57.268Z,2.70
2017-09-08T20:08:02.389Z,3.03
2017-09-08T20:11:07.320Z,2.60
2017-09-08T20:14:12.716Z,2.33
2017-09-08T20:17:18.225Z,2.57
2017-09-08T20:20:23.753Z,2.63
2017-09-08T20:23:28.932Z,3.30
2017-09-08T20:26:33.804Z,2.77
2017-09-08T20:29:39.616Z,3.03
2017-09-08T20:32:44.598Z,2.73
2017-09-08T20:35:51.324Z,2.40
2017-09-08T20:38:56.204Z,2.57
2017-09-08T20:42:01.592Z,3.27
2017-09-08T20:45:07.104Z,2.73
2017-09-08T20:48:12.863Z,2.70
2017-09-08T20:51:18.520Z,2.70
2017-09-08T20:54:23.397Z,2.57
2017-09-08T20:57:28.659Z,3.10
2017-09-08T21:00:33.500Z,2.63
2017-09-08T21:03:38.523Z,2.70
2017-09-08T21:06:43.384Z,2.50
2017-09-08T21:09:48.264Z,3.00
2017-09-08T21:12:53.665Z,3.33
2017-09-08T21:15:59.304Z,2.97
2017-09-08T21:19:04.480Z,3.37
2017-09-08T21:22:09.495Z,2.13
2017-09-08T21:25:14.968Z,2.90
2017-09-08T21:28:21.099Z,3.00
2017-09-08T21:31:26.080Z,2.37
2017-09-08T21:34:31.212Z,2.60
2017-09-08T21:37:36.682Z,2.77
2017-09-08T21:40:42.123Z,2.70
2017-09-08T21:43:47.076Z,2.20
2017-09-08T21:46:52.768Z,2.83
2017-09-08T21:49:57.575Z,2.17
2017-09-08T21:53:02.877Z,2.63
2017-09-08T21:56:08.156Z,2.27
2017-09-08T21:59:13.884Z,3.07
2017-09-08T22:02:19.635Z,3.20
2017-09-08T22:05:25.074Z,2.33
2017-09-08T22:08:30.069Z,2.60
2017-09-08T22:11:35.125Z,2.70
2017-09-08T22:14:41.188Z,2.43
2017-09-08T22:17:46.162Z,2.50
2017-09-08T22:20:50.879Z,2.93
2017-09-08T22:23:57.008Z,2.43
2017-09-08T22:27:01.919Z,2.70
2017-09-08T22:30:07.792Z,2.57
2017-09-08T22:33:13.999Z,2.63
2017-09-08T22:36:19.635Z,3.07
2017-09-08T22:39:24.780Z,2.87
2017-09-08T22:42:30.062Z,3.60
2017-09-08T22:45:35.178Z,2.97
2017-09-08T22:48:40.123Z,2.90
2017-09-08T22:51:45.468Z,2.90
2017-09-08T22:54:54.456Z,3.17
2017-09-08T22:57:59.949Z,2.57
2017-09-08T23:01:04.707Z,2.93
2017-09-08T23:04:09.644Z,3.07
2017-09-08T23:07:16.283Z,2.57
2017-09-08T23:10:22.045Z,2.40
2017-09-08T23:13:27.780Z,3.60
2017-09-08T23:16:32.407Z,2.37
2017-09-08T23:19:37.945Z,2.40
2017-09-08T23:22:42.784Z,2.43
2017-09-08T23:25:48.023Z,2.77
2017-09-08T23:28:53.143Z,3.03
2017-09-08T23:31:58.168Z,2.80
2017-09-08T23:35:03.791Z,2.37
2017-09-08T23:38:11.740Z,2.87
2017-09-08T23:41:16.740Z,2.70
2017-09-08T23:44:22.236Z,4.03
2017-09-08T23:47:27.071Z,3.07
2017-09-08T23:50:31.952Z,3.03
2017-09-08T23:53:37.450Z,2.83
2017-09-08T23:56:42.824Z,2.83
2017-09-08T23:59:49.374Z,2.80
